Time;durP1;ratioP1;P1;durP2;ratioP2;P2;SDS_P1;SDS_P2;PMS_P1;PMS_P2;Temp;Humidity;BMP_temperature;BMP_pressure;BME280_temperature;BME280_humidity;BME280_pressure;Samples;Min_cycle;Max_cycle;Signal;HPM_P1;HPM_P2
2023/07/22 00:01:22;;;;;;;2.67;2.30;;;;;;;14.93;69.01;95579.28;4993554;28;20203;-82
2023/07/22 00:03:47;;;;;;;3.78;2.35;;;;;;;14.82;69.69;95577.06;5003717;28;20293;-81
2023/07/22 00:06:13;;;;;;;2.67;2.30;;;;;;;14.87;69.47;95581.78;5004578;28;20867;-82
2023/07/22 00:08:39;;;;;;;2.53;2.22;;;;;;;14.90;69.23;95582.22;5017210;28;20204;-80
2023/07/22 00:11:05;;;;;;;2.60;2.10;;;;;;;14.86;69.48;95572.31;5017620;28;20192;-81
2023/07/22 00:13:31;;;;;;;6.03;2.33;;;;;;;14.88;69.28;95576.38;5000293;28;20671;-81
2023/07/22 00:15:56;;;;;;;2.63;2.15;;;;;;;14.85;69.62;95581.94;5013285;28;20192;-81
2023/07/22 00:18:23;;;;;;;3.83;2.08;;;;;;;14.98;68.95;95581.38;4986044;28;20210;-82
2023/07/22 00:20:49;;;;;;;2.80;2.17;;;;;;;14.95;68.63;95576.50;5000867;28;20242;-83
2023/07/22 00:23:15;;;;;;;2.90;1.98;;;;;;;14.88;68.80;95578.97;5000630;28;20212;-81
2023/07/22 00:25:41;;;;;;;2.38;2.10;;;;;;;14.82;69.51;95582.28;4983785;28;20215;-82
2023/07/22 00:28:06;;;;;;;3.37;2.00;;;;;;;14.73;69.60;95580.69;5011368;28;20184;-81
2023/07/22 00:30:32;;;;;;;2.67;1.98;;;;;;;14.78;69.61;95580.19;4986380;28;20198;-82
2023/07/22 00:32:57;;;;;;;2.58;2.00;;;;;;;14.86;69.31;95582.75;4997781;28;20203;-81
2023/07/22 00:35:22;;;;;;;3.58;2.35;;;;;;;14.85;69.01;95581.94;5016857;28;20190;-81
2023/07/22 00:37:48;;;;;;;2.53;2.10;;;;;;;14.78;69.62;95578.41;4982672;28;20571;-82
2023/07/22 00:40:13;;;;;;;2.67;1.95;;;;;;;14.89;69.11;95569.34;5014079;28;20196;-82
2023/07/22 00:42:39;;;;;;;2.20;2.00;;;;;;;14.87;69.02;95572.13;4998722;28;20219;-81
2023/07/22 00:45:07;;;;;;;2.40;2.15;;;;;;;14.84;69.10;95576.88;4987936;28;20210;-81
2023/07/22 00:47:33;;;;;;;2.92;2.30;;;;;;;14.82;69.73;95574.44;4999424;28;20183;-83
2023/07/22 00:50:00;;;;;;;2.97;2.22;;;;;;;14.86;69.17;95567.06;4991881;28;20239;-80
2023/07/22 00:52:25;;;;;;;2.45;1.92;;;;;;;14.85;68.72;95581.94;4995523;28;20203;-82
2023/07/22 00:54:50;;;;;;;3.45;2.17;;;;;;;14.85;68.88;95574.09;4983723;28;20183;-81
2023/07/22 00:57:16;;;;;;;2.97;2.25;;;;;;;14.84;69.12;95572.50;4978413;28;20283;-81
2023/07/22 00:59:41;;;;;;;2.53;2.03;;;;;;;14.76;69.45;95572.53;4989717;28;20649;-82
2023/07/22 01:02:07;;;;;;;2.92;1.95;;;;;;;14.89;68.97;95566.72;5010523;28;20219;-81
2023/07/22 01:04:33;;;;;;;4.03;2.13;;;;;;;14.70;69.63;95565.38;4994386;28;20206;-81
2023/07/22 01:06:58;;;;;;;4.82;2.28;;;;;;;14.70;69.65;95562.75;5011607;28;20868;-80
2023/07/22 01:09:24;;;;;;;3.80;2.10;;;;;;;14.71;69.82;95564.38;4994928;28;20215;-81
2023/07/22 01:11:49;;;;;;;2.45;2.10;;;;;;;14.64;69.70;95571.28;5005065;28;20555;-81
2023/07/22 01:14:14;;;;;;;3.92;2.03;;;;;;;14.74;69.57;95567.44;5012869;28;20693;-79
2023/07/22 01:16:40;;;;;;;2.20;1.88;;;;;;;14.76;69.02;95567.31;4997990;28;20709;-80
2023/07/22 01:19:05;;;;;;;2.72;1.92;;;;;;;14.73;69.46;95567.63;5000273;28;20191;-80
2023/07/22 01:21:31;;;;;;;3.47;2.20;;;;;;;14.82;68.81;95557.94;4995684;28;20578;-81
2023/07/22 01:23:57;;;;;;;3.92;2.17;;;;;;;14.78;69.00;95557.47;4991761;28;20187;-80
2023/07/22 01:26:22;;;;;;;4.38;2.08;;;;;;;14.76;68.89;95556.84;4998683;28;20182;-80
2023/07/22 01:28:48;;;;;;;3.10;2.10;;;;;;;14.59;69.73;95556.13;4989886;28;20605;-79
2023/07/22 01:31:13;;;;;;;3.17;1.83;;;;;;;14.54;70.08;95555.00;4996317;28;20195;-80
2023/07/22 01:33:39;;;;;;;3.53;2.10;;;;;;;14.62;69.87;95550.53;4995947;28;20664;-80
2023/07/22 01:36:04;;;;;;;3.03;2.23;;;;;;;14.58;69.82;95558.91;5006164;28;20179;-80
2023/07/22 01:38:31;;;;;;;5.45;2.17;;;;;;;14.58;69.69;95553.69;5007828;28;20559;-79
2023/07/22 01:40:56;;;;;;;2.58;2.20;;;;;;;14.57;70.10;95557.25;5012935;28;20191;-79
2023/07/22 01:43:21;;;;;;;3.20;2.17;;;;;;;14.56;70.09;95553.03;5013476;28;20258;-80
2023/07/22 01:45:47;;;;;;;3.17;1.92;;;;;;;14.67;69.75;95557.88;4996872;28;20211;-80
2023/07/22 01:48:12;;;;;;;3.50;2.10;;;;;;;14.48;70.41;95553.88;4989849;28;20195;-80
2023/07/22 01:50:38;;;;;;;2.20;1.88;;;;;;;14.37;71.08;95544.59;4984979;28;20191;-80
2023/07/22 01:53:05;;;;;;;3.53;2.10;;;;;;;14.54;70.26;95549.78;4994743;28;20204;-80
2023/07/22 01:55:32;;;;;;;2.72;1.98;;;;;;;14.51;70.16;95542.28;4996617;28;20319;-80
2023/07/22 01:57:57;;;;;;;2.73;2.53;;;;;;;14.41;70.72;95543.28;5012298;28;20275;-80
2023/07/22 02:00:22;;;;;;;4.18;2.40;;;;;;;14.47;70.53;95543.59;5005478;28;20623;-79
2023/07/22 02:02:48;;;;;;;2.60;2.00;;;;;;;14.48;70.36;95542.63;4975873;28;20707;-78
2023/07/22 02:05:13;;;;;;;2.50;2.28;;;;;;;14.41;70.49;95538.06;4992937;28;20219;-79
2023/07/22 02:07:39;;;;;;;2.50;2.25;;;;;;;14.36;70.46;95535.13;5012971;28;20190;-80
2023/07/22 02:10:05;;;;;;;2.45;2.25;;;;;;;14.35;70.72;95538.75;4992925;28;20195;-80
2023/07/22 02:12:30;;;;;;;2.37;2.17;;;;;;;14.28;71.06;95543.00;4993818;28;20285;-80
2023/07/22 02:14:56;;;;;;;3.08;2.00;;;;;;;14.25;71.40;95534.72;4985198;28;20351;-80
2023/07/22 02:17:21;;;;;;;2.80;2.10;;;;;;;14.27;70.92;95540.56;4992496;28;20195;-80
2023/07/22 02:19:46;;;;;;;3.30;2.30;;;;;;;14.28;71.21;95537.78;5006631;28;20667;-80
2023/07/22 02:22:12;;;;;;;3.10;2.20;;;;;;;14.24;70.98;95546.97;5027694;28;20203;-79
2023/07/22 02:24:38;;;;;;;3.80;2.50;;;;;;;14.14;71.49;95548.97;5033240;28;20282;-80
2023/07/22 02:27:03;;;;;;;2.90;2.40;;;;;;;14.18;71.36;95548.44;5024471;28;20435;-81
2023/07/22 02:29:31;;;;;;;2.40;2.20;;;;;;;14.12;71.33;95541.28;5003210;28;20187;-81
2023/07/22 02:31:57;;;;;;;3.23;2.40;;;;;;;14.08;71.90;95550.44;4987697;28;20211;-81
2023/07/22 02:34:23;;;;;;;2.17;1.97;;;;;;;14.09;71.72;95549.47;5016737;28;20274;-81
2023/07/22 02:36:48;;;;;;;5.32;2.67;;;;;;;14.05;71.77;95547.38;5005437;28;20266;-81
2023/07/22 02:39:13;;;;;;;3.53;2.10;;;;;;;14.04;72.30;95551.75;5020327;28;20228;-82
2023/07/22 02:41:39;;;;;;;4.75;2.58;;;;;;;14.03;71.94;95557.16;5021025;28;20206;-81
2023/07/22 02:44:04;;;;;;;3.08;2.38;;;;;;;14.03;71.86;95547.50;5017522;28;20671;-81
2023/07/22 02:46:30;;;;;;;3.08;2.30;;;;;;;14.04;71.96;95543.09;5018495;28;20183;-81
2023/07/22 02:48:55;;;;;;;2.83;2.10;;;;;;;14.05;71.95;95544.75;5002847;28;20184;-80
2023/07/22 02:51:20;;;;;;;3.43;2.13;;;;;;;14.04;71.44;95543.09;4999604;28;20610;-80
2023/07/22 02:53:46;;;;;;;2.57;2.37;;;;;;;14.11;71.62;95546.69;5013719;28;20215;-82
2023/07/22 02:56:12;;;;;;;2.40;2.10;;;;;;;14.11;71.35;95552.72;4986438;28;20221;-80
2023/07/22 02:58:37;;;;;;;2.60;2.13;;;;;;;14.12;71.49;95545.69;5001150;28;20662;-81
2023/07/22 03:01:04;;;;;;;2.60;2.30;;;;;;;14.08;71.09;95547.03;4994513;28;20192;-81
2023/07/22 03:03:30;;;;;;;4.37;2.67;;;;;;;14.11;71.17;95546.69;4991853;28;20251;-82
2023/07/22 03:05:58;;;;;;;2.93;1.97;;;;;;;14.07;71.34;95541.00;4986178;28;20267;-80
2023/07/22 03:08:23;;;;;;;2.90;2.10;;;;;;;14.09;71.07;95546.84;4981148;28;20200;-78
2023/07/22 03:10:49;;;;;;;2.40;2.20;;;;;;;14.06;70.94;95538.56;5012772;28;20179;-79
2023/07/22 03:13:15;;;;;;;2.63;2.10;;;;;;;14.06;71.24;95551.59;4993712;28;20211;-81
2023/07/22 03:15:41;;;;;;;2.73;1.97;;;;;;;14.04;71.55;95535.28;4989602;28;20258;-80
2023/07/22 03:18:06;;;;;;;3.33;2.50;;;;;;;14.01;71.60;95539.03;5000272;28;20202;-81
2023/07/22 03:20:31;;;;;;;2.80;2.10;;;;;;;13.80;72.50;95550.06;5008074;28;20278;-80
2023/07/22 03:22:57;;;;;;;3.28;2.40;;;;;;;13.94;71.84;95537.28;5007820;28;20702;-81
2023/07/22 03:25:22;;;;;;;2.50;2.30;;;;;;;13.86;72.13;95549.34;5003534;28;20274;-80
2023/07/22 03:27:47;;;;;;;2.80;2.50;;;;;;;13.92;71.84;95547.06;5014945;28;20219;-80
2023/07/22 03:30:16;;;;;;;4.40;2.33;;;;;;;13.89;71.86;95548.22;4999975;28;20192;-81
2023/07/22 03:32:42;;;;;;;3.37;2.30;;;;;;;13.82;71.93;95544.66;5017450;28;20732;-80
2023/07/22 03:35:11;;;;;;;2.13;1.92;;;;;;;13.81;71.74;95545.66;5006245;28;20187;-79
2023/07/22 03:37:37;;;;;;;3.47;2.60;;;;;;;13.87;71.78;95545.78;4981989;28;20207;-79
2023/07/22 03:40:07;;;;;;;4.37;2.33;;;;;;;13.85;72.26;95536.47;5006393;28;20196;-80
2023/07/22 03:42:33;;;;;;;2.97;2.30;;;;;;;13.88;71.60;95542.19;4996800;28;20203;-82
2023/07/22 03:44:59;;;;;;;3.83;2.43;;;;;;;14.00;71.15;95539.22;4982988;28;20215;-81
2023/07/22 03:47:24;;;;;;;3.17;2.23;;;;;;;13.99;71.43;95540.19;4996081;28;20210;-81
2023/07/22 03:49:50;;;;;;;3.93;2.20;;;;;;;14.11;70.93;95549.28;4989122;28;20225;-79
2023/07/22 03:52:18;;;;;;;3.10;2.33;;;;;;;14.15;71.06;95542.75;5009055;28;20699;-80
2023/07/22 03:54:43;;;;;;;2.60;2.00;;;;;;;14.33;70.50;95550.34;4999512;28;20215;-79
2023/07/22 03:57:09;;;;;;;2.57;1.97;;;;;;;14.37;69.92;95547.22;4982328;28;20198;-80
2023/07/22 03:59:34;;;;;;;3.78;2.30;;;;;;;14.42;70.09;95544.91;4995083;28;20191;-80
2023/07/22 04:01:59;;;;;;;4.28;1.90;;;;;;;14.37;70.34;95549.00;4996343;28;20229;-80
2023/07/22 04:04:24;;;;;;;3.20;2.00;;;;;;;14.52;69.89;95544.72;4971376;28;20211;-81
2023/07/22 04:06:50;;;;;;;3.42;2.35;;;;;;;14.30;70.49;95543.66;5009280;28;20286;-80
2023/07/22 04:09:15;;;;;;;2.53;2.20;;;;;;;14.66;69.83;95541.38;4997162;28;20682;-81
2023/07/22 04:11:40;;;;;;;2.85;2.15;;;;;;;15.01;68.28;95542.59;4980160;28;20327;-80
2023/07/22 04:14:06;;;;;;;2.20;2.00;;;;;;;15.42;65.95;95541.47;4997210;28;20182;-80
2023/07/22 04:16:31;;;;;;;2.67;2.30;;;;;;;15.71;64.95;95548.56;4986926;28;20228;-81
2023/07/22 04:18:57;;;;;;;3.97;1.98;;;;;;;15.68;64.56;95546.31;4967118;28;20192;-81
2023/07/22 04:21:22;;;;;;;3.10;2.33;;;;;;;15.53;65.08;95543.63;4979188;28;20216;-80
2023/07/22 04:23:49;;;;;;;3.40;1.90;;;;;;;15.53;64.95;95536.59;5008034;28;20207;-81
2023/07/22 04:26:14;;;;;;;3.67;2.47;;;;;;;15.50;65.23;95544.81;4996011;28;20202;-80
2023/07/22 04:28:39;;;;;;;2.30;2.10;;;;;;;15.36;66.23;95539.53;5010439;28;20188;-80
2023/07/22 04:31:05;;;;;;;3.03;2.00;;;;;;;15.50;65.62;95541.38;5010955;28;20278;-80
2023/07/22 04:33:31;;;;;;;3.28;2.17;;;;;;;15.27;66.32;95537.00;4995136;28;20714;-79
2023/07/22 04:35:58;;;;;;;2.40;2.15;;;;;;;15.41;65.60;95545.88;5009427;28;20658;-79
2023/07/22 04:38:24;;;;;;;3.17;2.47;;;;;;;15.48;65.88;95541.56;4984890;28;20246;-79
2023/07/22 04:40:49;;;;;;;2.50;2.30;;;;;;;15.73;65.22;95544.00;4972032;28;20188;-80
2023/07/22 04:43:15;;;;;;;3.13;1.80;;;;;;;16.39;62.51;95544.84;4988700;28;20208;-80
2023/07/22 04:45:40;;;;;;;2.58;2.08;;;;;;;17.99;57.06;95546.13;5002513;28;20246;-81
2023/07/22 04:48:06;;;;;;;3.45;2.25;;;;;;;18.80;55.73;95543.69;5002012;28;20234;-80
2023/07/22 04:50:31;;;;;;;4.53;2.00;;;;;;;19.34;53.14;95542.75;4993319;28;20211;-81
2023/07/22 04:52:56;;;;;;;3.20;1.83;;;;;;;20.61;48.87;95554.75;4997172;28;20576;-81
2023/07/22 04:55:22;;;;;;;2.90;2.13;;;;;;;20.71;48.85;95541.09;4970375;28;20227;-80
2023/07/22 04:57:47;;;;;;;2.28;2.08;;;;;;;20.88;46.51;95545.69;5015917;28;20198;-81
2023/07/22 05:00:16;;;;;;;2.00;1.80;;;;;;;20.95;46.52;95544.84;5016295;28;20187;-81
2023/07/22 05:02:45;;;;;;;2.90;1.92;;;;;;;21.55;45.37;95558.47;4988444;28;20203;-80
2023/07/22 05:05:11;;;;;;;3.15;1.85;;;;;;;22.11;43.57;95560.25;4993542;28;20215;-81
2023/07/22 05:07:36;;;;;;;2.05;1.83;;;;;;;21.93;44.65;95567.09;5016293;28;20179;-80
2023/07/22 05:10:01;;;;;;;2.58;2.10;;;;;;;21.87;44.17;95559.22;5000291;28;20187;-80
2023/07/22 05:12:27;;;;;;;3.03;1.75;;;;;;;22.64;42.79;95562.31;4996809;28;20214;-81
2023/07/22 05:14:52;;;;;;;2.10;1.90;;;;;;;24.08;39.71;95563.84;4998294;28;20731;-81
2023/07/22 05:17:17;;;;;;;4.07;2.08;;;;;;;23.84;39.86;95567.53;4988601;28;20207;-81
2023/07/22 05:19:43;;;;;;;3.10;1.80;;;;;;;24.06;39.57;95568.59;4998188;28;20274;-82
2023/07/22 05:22:08;;;;;;;2.33;2.03;;;;;;;24.08;39.69;95563.84;4985316;28;20303;-82
2023/07/22 05:24:33;;;;;;;2.95;1.90;;;;;;;23.87;38.88;95570.56;5031261;28;20188;-81
2023/07/22 05:26:59;;;;;;;2.53;2.30;;;;;;;24.45;37.52;95568.91;4997723;28;20188;-82
2023/07/22 05:29:24;;;;;;;3.15;2.58;;;;;;;24.26;38.32;95577.00;5015234;28;20187;-83
2023/07/22 05:31:49;;;;;;;2.45;1.92;;;;;;;24.45;38.59;95577.69;5022422;28;20206;-82
2023/07/22 05:34:15;;;;;;;2.20;1.58;;;;;;;25.31;36.51;95585.75;5007918;28;20183;-81
2023/07/22 05:36:40;;;;;;;2.83;2.00;;;;;;;25.28;36.78;95587.06;5021805;28;20547;-83
2023/07/22 05:39:05;;;;;;;3.25;1.80;;;;;;;25.37;36.42;95584.81;4990136;28;20183;-83
2023/07/22 05:41:33;;;;;;;1.98;1.70;;;;;;;26.02;34.67;95581.63;5001271;28;20329;-81
2023/07/22 05:43:58;;;;;;;3.35;2.20;;;;;;;24.90;37.50;95584.97;4994629;28;20187;-81
2023/07/22 05:46:23;;;;;;;3.42;2.00;;;;;;;25.04;37.20;95594.31;5015349;28;20214;-81
2023/07/22 05:48:48;;;;;;;2.17;1.80;;;;;;;25.40;36.39;95589.63;4996605;28;20334;-80
2023/07/22 05:51:15;;;;;;;1.85;1.60;;;;;;;27.36;33.02;95589.22;4990356;28;20218;-81
2023/07/22 05:53:40;;;;;;;2.63;2.00;;;;;;;25.24;36.17;95585.09;5003396;28;20697;-81
2023/07/22 05:56:05;;;;;;;2.17;1.85;;;;;;;26.41;34.60;95597.66;4992765;28;20188;-80
2023/07/22 05:58:31;;;;;;;2.85;1.70;;;;;;;26.37;35.00;95592.00;4994767;28;20203;-81
2023/07/22 06:00:56;;;;;;;2.35;1.88;;;;;;;26.89;34.12;95602.28;4993380;28;20196;-82
2023/07/22 06:03:21;;;;;;;2.42;2.20;;;;;;;27.21;33.02;95597.06;5012856;28;20203;-82
2023/07/22 06:05:47;;;;;;;2.65;1.90;;;;;;;28.27;31.47;95598.22;4975642;28;20208;-81
2023/07/22 06:08:12;;;;;;;3.60;2.00;;;;;;;27.90;32.00;95596.38;4991357;28;20628;-82
2023/07/22 06:10:39;;;;;;;2.92;2.00;;;;;;;28.55;30.79;95603.25;4989325;28;20652;-81
2023/07/22 06:13:04;;;;;;;1.63;1.52;;;;;;;27.87;32.04;95604.91;5006747;28;20208;-83
2023/07/22 06:15:30;;;;;;;2.45;1.88;;;;;;;27.81;31.32;95614.72;4998706;28;20250;-84
2023/07/22 06:17:55;;;;;;;2.00;1.80;;;;;;;28.58;31.16;95615.28;4990703;28;20697;-84
2023/07/22 06:20:20;;;;;;;2.13;1.70;;;;;;;29.18;29.66;95612.09;5015488;28;20194;-81
2023/07/22 06:22:46;;;;;;;2.03;1.67;;;;;;;30.14;28.29;95618.69;5008841;28;20195;-81
2023/07/22 06:25:11;;;;;;;2.40;1.60;;;;;;;29.09;30.08;95628.91;5034742;28;20195;-81
2023/07/22 06:27:37;;;;;;;1.63;1.48;;;;;;;29.11;29.87;95618.75;5018001;28;20247;-82
2023/07/22 06:30:03;;;;;;;1.95;1.60;;;;;;;28.52;30.67;95614.44;4989389;28;20279;-82
2023/07/22 06:32:29;;;;;;;1.75;1.60;;;;;;;28.72;30.29;95624.47;4992110;28;20231;-82
2023/07/22 06:34:56;;;;;;;1.95;1.75;;;;;;;29.89;27.94;95622.16;5014066;28;20198;-81
2023/07/22 06:37:21;;;;;;;2.47;1.60;;;;;;;28.69;30.40;95627.63;5008060;28;20188;-84
2023/07/22 06:39:46;;;;;;;2.55;1.42;;;;;;;28.72;30.41;95624.47;4978920;28;20278;-84
2023/07/22 06:42:12;;;;;;;1.80;1.65;;;;;;;29.34;28.32;95626.31;4975508;28;20210;-83
2023/07/22 06:44:40;;;;;;;1.80;1.50;;;;;;;28.66;31.10;95625.50;4986590;28;20219;-82
2023/07/22 06:47:11;;;;;;;1.92;1.70;;;;;;;28.95;30.15;95636.59;4992503;28;20749;-82
2023/07/22 06:49:36;;;;;;;1.67;1.58;;;;;;;29.04;29.72;95633.16;4965777;28;20171;-81
2023/07/22 06:52:02;;;;;;;1.92;1.60;;;;;;;30.08;28.40;95636.63;4982214;28;20198;-82
2023/07/22 06:54:27;;;;;;;2.28;1.80;;;;;;;29.39;29.13;95631.66;4993508;28;20228;-82
2023/07/22 06:56:53;;;;;;;4.28;1.65;;;;;;;28.36;29.51;95621.59;4999804;28;20184;-82
2023/07/22 06:59:18;;;;;;;2.75;1.60;;;;;;;30.90;26.95;95625.78;4973094;28;20208;-83
2023/07/22 07:01:43;;;;;;;3.25;1.65;;;;;;;29.67;28.20;95625.06;4991606;28;20249;-83
2023/07/22 07:04:09;;;;;;;2.88;1.75;;;;;;;29.42;28.05;95633.84;5010955;28;20183;-82
2023/07/22 07:06:34;;;;;;;2.65;1.42;;;;;;;29.31;27.34;95627.63;4996963;28;20195;-82
2023/07/22 07:09:03;;;;;;;3.08;1.40;;;;;;;29.24;26.83;95632.44;4994326;28;20183;-82
2023/07/22 07:11:29;;;;;;;3.53;1.52;;;;;;;29.95;26.56;95629.13;4989446;28;20230;-82
2023/07/22 07:13:54;;;;;;;1.58;1.48;;;;;;;29.79;25.75;95622.94;4990096;28;20682;-83
2023/07/22 07:16:24;;;;;;;2.88;1.70;;;;;;;29.43;27.27;95621.25;4971921;28;20626;-82
2023/07/22 07:18:50;;;;;;;1.90;1.60;;;;;;;27.37;30.58;95625.47;5006805;28;20192;-78
2023/07/22 07:21:16;;;;;;;3.75;1.42;;;;;;;28.10;29.11;95620.56;4993677;28;20662;-78
2023/07/22 07:23:41;;;;;;;2.42;1.60;;;;;;;27.80;29.28;95634.47;5009115;28;20190;-78
2023/07/22 07:26:07;;;;;;;2.80;1.50;;;;;;;27.86;29.24;95630.78;4993199;28;20719;-77
2023/07/22 07:28:32;;;;;;;2.10;1.80;;;;;;;27.24;30.58;95625.88;4991488;28;20218;-82
2023/07/22 07:30:57;;;;;;;1.60;1.50;;;;;;;26.62;31.71;95639.50;4996088;28;20211;-81
2023/07/22 07:33:23;;;;;;;1.95;1.23;;;;;;;25.68;32.24;95640.13;4993157;28;20210;-82
2023/07/22 07:35:48;;;;;;;2.03;1.55;;;;;;;25.63;32.81;95633.91;5007844;28;20205;-81
2023/07/22 07:38:13;;;;;;;1.40;1.30;;;;;;;26.13;31.95;95638.47;4995049;28;20218;-81
2023/07/22 07:40:39;;;;;;;2.65;1.52;;;;;;;25.85;32.24;95639.34;4983684;28;20176;-82
2023/07/22 07:43:04;;;;;;;1.25;1.15;;;;;;;25.87;31.92;95635.41;4992640;28;20211;-81
2023/07/22 07:45:29;;;;;;;1.50;1.23;;;;;;;26.17;31.76;95642.28;4993487;28;20206;-81
2023/07/22 07:47:55;;;;;;;2.22;1.50;;;;;;;26.78;31.21;95640.50;4982537;28;20200;-82
2023/07/22 07:50:20;;;;;;;1.70;1.40;;;;;;;26.57;31.48;95649.25;4970596;28;20202;-80
2023/07/22 07:52:45;;;;;;;4.18;1.58;;;;;;;26.73;30.47;95641.22;5011177;28;20204;-80
2023/07/22 07:55:11;;;;;;;3.40;1.45;;;;;;;27.37;30.11;95641.47;5000106;28;20187;-80
2023/07/22 07:57:37;;;;;;;1.50;1.40;;;;;;;27.12;30.55;95645.72;5016560;28;20550;-82
2023/07/22 08:00:03;;;;;;;1.35;1.08;;;;;;;27.57;29.66;95653.44;4987120;28;20195;-80
2023/07/22 08:02:28;;;;;;;1.63;1.33;;;;;;;26.92;29.93;95646.25;5002131;28;20195;-82
2023/07/22 08:04:53;;;;;;;1.25;1.15;;;;;;;27.68;28.29;95652.50;4995509;28;20203;-81
2023/07/22 08:07:19;;;;;;;2.28;1.60;;;;;;;27.20;30.14;95654.09;4978256;28;20198;-82
2023/07/22 08:09:48;;;;;;;1.70;1.30;;;;;;;26.48;30.77;95643.56;4985559;28;20634;-81
2023/07/22 08:12:14;;;;;;;3.08;1.50;;;;;;;25.53;30.48;95637.22;5017012;28;20208;-81
2023/07/22 08:14:39;;;;;;;1.83;1.33;;;;;;;25.90;31.90;95648.25;4989003;28;20218;-79
2023/07/22 08:17:05;;;;;;;1.95;1.77;;;;;;;24.46;33.30;95643.00;5020972;28;20200;-81
2023/07/22 08:19:30;;;;;;;1.92;1.45;;;;;;;25.47;32.17;95642.66;5015879;28;20184;-80
2023/07/22 08:21:55;;;;;;;1.77;1.42;;;;;;;25.34;32.79;95641.09;4985200;28;20694;-82
2023/07/22 08:24:21;;;;;;;4.53;1.52;;;;;;;25.65;32.66;95640.59;5027141;28;20206;-81
2023/07/22 08:26:46;;;;;;;1.60;1.40;;;;;;;26.24;32.32;95642.94;5011548;28;20194;-82
2023/07/22 08:29:11;;;;;;;2.05;1.55;;;;;;;25.24;31.96;95636.41;5023677;28;20181;-82
2023/07/22 08:31:37;;;;;;;2.67;1.70;;;;;;;25.30;33.38;95637.31;4994155;28;20214;-83
2023/07/22 08:34:02;;;;;;;2.03;1.50;;;;;;;24.81;33.71;95644.81;5003210;28;20190;-82
2023/07/22 08:36:27;;;;;;;2.78;1.50;;;;;;;23.65;34.18;95641.06;5013497;28;20202;-84
2023/07/22 08:38:53;;;;;;;1.90;1.48;;;;;;;23.78;35.27;95642.72;4996836;28;20680;-83
2023/07/22 08:41:18;;;;;;;1.70;1.60;;;;;;;23.25;35.49;95643.44;4968972;28;20184;-81
2023/07/22 08:43:46;;;;;;;2.67;1.50;;;;;;;23.14;36.39;95639.69;4996984;28;20688;-83
2023/07/22 08:46:12;;;;;;;1.50;1.40;;;;;;;22.42;36.76;95647.41;5000835;28;20780;-83
2023/07/22 08:48:41;;;;;;;1.85;1.55;;;;;;;22.40;37.74;95643.38;4993070;28;20183;-84
2023/07/22 08:51:10;;;;;;;2.88;1.60;;;;;;;22.61;37.12;95642.94;5010508;28;20219;-83
2023/07/22 08:53:37;;;;;;;1.85;1.75;;;;;;;23.05;37.03;95639.19;4980030;28;20195;-83
2023/07/22 08:56:03;;;;;;;4.30;1.58;;;;;;;23.12;37.34;95639.09;5013094;28;20254;-83
2023/07/22 08:58:29;;;;;;;2.00;1.80;;;;;;;23.23;36.42;95637.53;5009414;28;20191;-84
2023/07/22 09:00:55;;;;;;;1.83;1.63;;;;;;;23.06;36.73;95655.91;4997140;28;20195;-83
2023/07/22 09:03:21;;;;;;;1.98;1.60;;;;;;;22.60;37.18;95639.47;5013835;28;20215;-83
2023/07/22 09:05:47;;;;;;;2.15;1.58;;;;;;;22.72;38.20;95652.00;4996869;28;20285;-83
2023/07/22 09:08:13;;;;;;;1.58;1.00;;;;;;;22.54;37.52;95648.31;4995299;28;20705;-83
2023/07/22 09:10:38;;;;;;;2.65;1.40;;;;;;;22.80;38.00;95651.72;5009949;28;20187;-84
2023/07/22 09:13:04;;;;;;;2.13;1.90;;;;;;;23.35;36.65;95633.91;4981495;28;20219;-84
2023/07/22 09:15:32;;;;;;;3.22;1.30;;;;;;;23.50;37.48;95635.31;4994611;28;20187;-82
2023/07/22 09:17:57;;;;;;;3.58;1.73;;;;;;;23.14;36.25;95637.03;4991083;28;20213;-83
2023/07/22 09:20:23;;;;;;;2.15;1.23;;;;;;;22.76;36.57;95645.22;4993821;28;20282;-83
2023/07/22 09:22:51;;;;;;;1.83;1.35;;;;;;;23.45;35.81;95638.66;4992723;28;20294;-83
2023/07/22 09:25:21;;;;;;;2.65;1.35;;;;;;;23.03;37.88;95635.97;4996038;28;20221;-83
2023/07/22 09:27:51;;;;;;;2.50;1.63;;;;;;;23.48;36.94;95640.84;4994940;28;20274;-83
2023/07/22 09:30:28;;;;;;;3.47;1.90;;;;;;;23.68;36.34;95638.78;4995827;28;20188;-83
2023/07/22 09:32:56;;;;;;;2.60;1.33;;;;;;;23.71;35.51;95634.84;5006055;28;20252;-82
2023/07/22 09:35:22;;;;;;;1.63;1.50;;;;;;;22.79;38.32;95647.41;4989940;28;20191;-83
2023/07/22 09:37:47;;;;;;;2.15;1.60;;;;;;;22.58;37.96;95638.09;5011184;28;20655;-82
2023/07/22 09:40:16;;;;;;;3.33;1.50;;;;;;;22.80;37.82;95639.28;5003116;28;20188;-82
2023/07/22 09:42:44;;;;;;;1.50;1.38;;;;;;;23.10;38.03;95631.38;4978184;28;20207;-82
2023/07/22 09:45:09;;;;;;;2.50;1.60;;;;;;;23.67;38.15;95629.19;4995670;28;20207;-83
2023/07/22 09:47:43;;;;;;;6.15;3.65;;;;;;;24.43;36.70;95626.75;5013520;28;20187;-81
2023/07/22 09:50:11;;;;;;;3.20;2.40;;;;;;;24.64;35.90;95627.97;4996553;28;20183;-84
2023/07/22 09:52:48;;;;;;;4.50;2.78;;;;;;;24.57;35.61;95620.97;5011708;28;20199;-82
2023/07/22 09:55:15;;;;;;;6.13;2.65;;;;;;;24.78;35.33;95629.34;4979511;28;20175;-82
2023/07/22 09:57:45;;;;;;;5.35;2.60;;;;;;;24.62;35.66;95625.56;4968474;28;20188;-84
2023/07/22 10:00:12;;;;;;;4.10;2.47;;;;;;;24.42;35.52;95622.47;4964494;28;20195;-84
2023/07/22 10:02:40;;;;;;;4.10;2.63;;;;;;;23.94;36.25;95620.81;5010165;28;20203;-83
2023/07/22 10:05:07;;;;;;;3.10;2.00;;;;;;;23.08;37.58;95630.00;5012408;28;20211;-83
2023/07/22 10:07:33;;;;;;;6.15;3.60;;;;;;;23.08;38.75;95630.00;4988099;28;20205;-82
2023/07/22 10:09:59;;;;;;;2.72;1.80;;;;;;;22.07;39.57;95633.91;4988095;28;20191;-82
2023/07/22 10:12:26;;;;;;;4.07;2.88;;;;;;;22.20;39.23;95635.63;4977428;28;20204;-82
2023/07/22 10:14:52;;;;;;;4.95;2.90;;;;;;;22.60;39.87;95638.66;5011395;28;20210;-84
2023/07/22 10:17:18;;;;;;;2.03;1.55;;;;;;;22.22;40.22;95631.72;4992568;28;20207;-82
2023/07/22 10:19:44;;;;;;;2.45;1.95;;;;;;;22.74;38.95;95634.84;4985500;28;20187;-83
2023/07/22 10:22:10;;;;;;;2.90;1.90;;;;;;;23.38;37.42;95625.50;4973871;28;20690;-83
2023/07/22 10:24:36;;;;;;;2.28;1.83;;;;;;;23.84;37.06;95617.91;5009785;28;20207;-82
2023/07/22 10:27:01;;;;;;;3.72;1.70;;;;;;;24.12;35.78;95615.44;4979285;28;20194;-82
2023/07/22 10:29:27;;;;;;;2.80;2.00;;;;;;;24.52;35.34;95620.03;4975823;28;20187;-83
2023/07/22 10:31:53;;;;;;;3.33;2.05;;;;;;;24.46;36.52;95621.75;4988323;28;20216;-83
2023/07/22 10:34:21;;;;;;;3.13;2.00;;;;;;;24.42;35.25;95619.81;4984636;28;20215;-82
2023/07/22 10:36:47;;;;;;;2.60;1.75;;;;;;;24.69;35.27;95617.47;4996675;28;20171;-82
2023/07/22 10:39:25;;;;;;;4.60;1.80;;;;;;;24.21;36.23;95610.59;4963668;28;20184;-83
2023/07/22 10:41:59;;;;;;;2.30;2.10;;;;;;;24.49;36.69;95609.91;4999277;28;20210;-81
2023/07/22 10:44:25;;;;;;;2.67;2.30;;;;;;;25.59;35.03;95608.84;5004254;28;20200;-81
2023/07/22 10:46:58;;;;;;;2.17;1.95;;;;;;;25.48;34.44;95612.38;4986647;28;20195;-83
2023/07/22 10:49:24;;;;;;;2.03;1.75;;;;;;;25.37;33.85;95606.88;4999995;28;20187;-82
2023/07/22 10:51:51;;;;;;;2.53;1.95;;;;;;;25.59;33.28;95609.66;5013549;28;20209;-82
2023/07/22 10:54:35;;;;;;;2.88;2.20;;;;;;;26.02;31.43;95607.44;4992639;28;20258;-81
2023/07/22 10:57:24;;;;;;;2.50;1.85;;;;;;;26.15;32.72;95602.59;4989001;28;20195;-81
2023/07/22 10:59:50;;;;;;;2.25;2.05;;;;;;;26.01;33.07;95597.84;5010513;28;20598;-83
2023/07/22 11:02:29;;;;;;;2.05;1.77;;;;;;;26.40;32.83;95599.50;4996270;28;20290;-83
2023/07/22 11:04:59;;;;;;;2.22;2.00;;;;;;;26.51;31.08;95597.81;4999319;28;20773;-84
2023/07/22 11:07:41;;;;;;;3.97;2.15;;;;;;;26.18;32.28;95593.31;4973801;28;20609;-83
2023/07/22 11:10:15;;;;;;;2.10;1.75;;;;;;;26.56;31.79;95591.72;4997731;28;20202;-82
2023/07/22 11:12:42;;;;;;;3.67;2.35;;;;;;;26.21;31.90;95601.59;4997433;28;20210;-82
2023/07/22 11:15:08;;;;;;;1.85;1.65;;;;;;;25.45;32.35;95591.59;5012887;28;20204;-82
2023/07/22 11:17:33;;;;;;;2.13;1.70;;;;;;;25.61;33.12;95586.28;4980961;28;20206;-82
2023/07/22 11:20:00;;;;;;;1.90;1.80;;;;;;;26.42;32.44;95583.31;4995359;28;20720;-82
2023/07/22 11:22:25;;;;;;;2.55;2.05;;;;;;;26.61;31.84;95575.81;4986723;28;20210;-83
2023/07/22 11:24:52;;;;;;;1.95;1.80;;;;;;;26.67;32.26;95578.28;5019539;28;20187;-82
2023/07/22 11:27:17;;;;;;;3.05;1.85;;;;;;;26.35;31.81;95579.97;5013802;28;20183;-83
2023/07/22 11:29:43;;;;;;;2.67;2.10;;;;;;;26.60;31.53;95577.69;5005847;28;20189;-82